sensor_id;sensor_type;location;lat;lon;timestamp;pressure;altitude;pressure_sealevel;temperature;humidity
68634;BME280;55625;47.072;22.192;2022-08-14T00:00:51;99102.78;;;20.35;70.17
68634;BME280;55625;47.072;22.192;2022-08-14T00:03:36;99108.00;;;20.37;69.99
68634;BME280;55625;47.072;22.192;2022-08-14T00:06:04;99106.69;;;20.38;70.13
68634;BME280;55625;47.072;22.192;2022-08-14T00:08:30;99107.47;;;20.38;69.23
68634;BME280;55625;47.072;22.192;2022-08-14T00:10:56;99104.31;;;20.42;68.96
68634;BME280;55625;47.072;22.192;2022-08-14T00:13:25;99095.91;;;20.44;68.40
68634;BME280;55625;47.072;22.192;2022-08-14T00:15:55;99097.72;;;20.47;67.28
68634;BME280;55625;47.072;22.192;2022-08-14T00:18:24;99090.09;;;20.50;66.52
68634;BME280;55625;47.072;22.192;2022-08-14T00:20:51;99080.13;;;20.51;66.18
68634;BME280;55625;47.072;22.192;2022-08-14T00:23:18;99085.13;;;20.50;65.93
68634;BME280;55625;47.072;22.192;2022-08-14T00:25:49;99085.13;;;20.50;65.59
68634;BME280;55625;47.072;22.192;2022-08-14T00:28:15;99085.66;;;20.49;65.68
68634;BME280;55625;47.072;22.192;2022-08-14T00:30:41;99088.28;;;20.46;65.17
68634;BME280;55625;47.072;22.192;2022-08-14T00:33:07;99086.97;;;20.48;65.42
68634;BME280;55625;47.072;22.192;2022-08-14T00:35:34;99086.72;;;20.45;65.29
68634;BME280;55625;47.072;22.192;2022-08-14T00:38:00;99089.06;;;20.47;65.25
68634;BME280;55625;47.072;22.192;2022-08-14T00:40:26;99091.72;;;20.45;65.07
68634;BME280;55625;47.072;22.192;2022-08-14T00:42:52;99100.38;;;20.45;64.72
68634;BME280;55625;47.072;22.192;2022-08-14T00:45:18;99086.50;;;20.38;64.49
68634;BME280;55625;47.072;22.192;2022-08-14T00:47:46;99085.97;;;20.39;64.91
68634;BME280;55625;47.072;22.192;2022-08-14T00:50:17;99093.84;;;20.39;64.86
68634;BME280;55625;47.072;22.192;2022-08-14T00:52:45;99086.03;;;20.34;65.40
68634;BME280;55625;47.072;22.192;2022-08-14T00:55:12;99082.91;;;20.32;65.92
68634;BME280;55625;47.072;22.192;2022-08-14T00:57:40;99079.78;;;20.30;66.31
68634;BME280;55625;47.072;22.192;2022-08-14T01:00:13;99080.31;;;20.28;66.63
68634;BME280;55625;47.072;22.192;2022-08-14T01:02:43;99081.41;;;20.25;66.96
68634;BME280;55625;47.072;22.192;2022-08-14T01:05:11;99079.28;;;20.26;66.61
68634;BME280;55625;47.072;22.192;2022-08-14T01:07:53;99079.06;;;20.24;66.06
68634;BME280;55625;47.072;22.192;2022-08-14T01:10:24;99081.16;;;20.17;65.55
68634;BME280;55625;47.072;22.192;2022-08-14T01:13:17;99082.00;;;20.12;65.40
68634;BME280;55625;47.072;22.192;2022-08-14T01:15:48;99085.19;;;20.09;65.86
68634;BME280;55625;47.072;22.192;2022-08-14T01:18:14;99095.38;;;20.10;65.79
68634;BME280;55625;47.072;22.192;2022-08-14T01:20:59;99088.84;;;20.09;65.66
68634;BME280;55625;47.072;22.192;2022-08-14T01:23:30;99090.41;;;20.10;65.94
68634;BME280;55625;47.072;22.192;2022-08-14T01:25:57;99088.06;;;20.09;66.28
68634;BME280;55625;47.072;22.192;2022-08-14T01:28:24;99084.44;;;20.03;66.72
68634;BME280;55625;47.072;22.192;2022-08-14T01:30:53;99084.19;;;20.01;66.48
68634;BME280;55625;47.072;22.192;2022-08-14T01:33:27;99084.72;;;19.99;66.83
68634;BME280;55625;47.072;22.192;2022-08-14T01:35:58;99086.28;;;20.00;66.86
68634;BME280;55625;47.072;22.192;2022-08-14T01:38:26;99083.94;;;19.99;67.23
68634;BME280;55625;47.072;22.192;2022-08-14T01:40:56;99072.47;;;19.93;67.54
68634;BME280;55625;47.072;22.192;2022-08-14T01:43:22;99075.34;;;19.93;67.57
68634;BME280;55625;47.072;22.192;2022-08-14T01:45:48;99080.34;;;19.93;67.58
68634;BME280;55625;47.072;22.192;2022-08-14T01:48:17;99084.53;;;19.92;67.97
68634;BME280;55625;47.072;22.192;2022-08-14T01:50:44;99082.97;;;19.91;68.09
68634;BME280;55625;47.072;22.192;2022-08-14T01:53:10;99083.75;;;19.91;68.26
68634;BME280;55625;47.072;22.192;2022-08-14T01:55:36;99075.09;;;19.91;68.26
68634;BME280;55625;47.072;22.192;2022-08-14T01:58:03;99068.81;;;19.87;68.78
68634;BME280;55625;47.072;22.192;2022-08-14T02:00:29;99073.81;;;19.87;68.94
68634;BME280;55625;47.072;22.192;2022-08-14T02:02:56;99077.47;;;19.87;68.88
68634;BME280;55625;47.072;22.192;2022-08-14T02:05:25;99073.28;;;19.88;69.08
68634;BME280;55625;47.072;22.192;2022-08-14T02:07:55;99075.13;;;19.85;69.17
68634;BME280;55625;47.072;22.192;2022-08-14T02:10:21;99065.94;;;19.87;69.45
68634;BME280;55625;47.072;22.192;2022-08-14T02:12:47;99061.50;;;19.86;69.51
68634;BME280;55625;47.072;22.192;2022-08-14T02:15:14;99064.91;;;19.84;69.83
68634;BME280;55625;47.072;22.192;2022-08-14T02:17:47;99059.97;;;19.79;70.35
68634;BME280;55625;47.072;22.192;2022-08-14T02:20:13;99058.13;;;19.82;70.31
68634;BME280;55625;47.072;22.192;2022-08-14T02:22:39;99066.47;;;19.85;70.20
68634;BME280;55625;47.072;22.192;2022-08-14T02:25:05;99056.00;;;19.88;70.16
68634;BME280;55625;47.072;22.192;2022-08-14T02:27:31;99061.75;;;19.88;69.80
68634;BME280;55625;47.072;22.192;2022-08-14T02:29:58;99061.75;;;19.88;70.01
68634;BME280;55625;47.072;22.192;2022-08-14T02:32:24;99062.81;;;19.91;69.87
68634;BME280;55625;47.072;22.192;2022-08-14T02:34:50;99059.94;;;19.91;70.32
68634;BME280;55625;47.072;22.192;2022-08-14T02:37:15;99057.56;;;19.89;70.57
68634;BME280;55625;47.072;22.192;2022-08-14T02:39:45;99057.31;;;19.87;70.42
68634;BME280;55625;47.072;22.192;2022-08-14T02:42:18;99051.53;;;19.87;70.63
68634;BME280;55625;47.072;22.192;2022-08-14T02:44:46;99049.50;;;19.82;70.76
68634;BME280;55625;47.072;22.192;2022-08-14T02:47:15;99064.13;;;19.84;70.62
68634;BME280;55625;47.072;22.192;2022-08-14T02:49:41;99063.41;;;19.78;70.61
68634;BME280;55625;47.072;22.192;2022-08-14T02:52:07;99073.34;;;19.77;70.38
68634;BME280;55625;47.072;22.192;2022-08-14T02:54:34;99068.16;;;19.70;69.75
68634;BME280;55625;47.072;22.192;2022-08-14T02:57:02;99073.97;;;19.64;69.93
68634;BME280;55625;47.072;22.192;2022-08-14T02:59:33;99072.16;;;19.56;69.17
68634;BME280;55625;47.072;22.192;2022-08-14T03:02:01;99061.97;;;19.54;69.08
68634;BME280;55625;47.072;22.192;2022-08-14T03:04:28;99070.31;;;19.52;69.08
68634;BME280;55625;47.072;22.192;2022-08-14T03:06:55;99067.19;;;19.50;69.37
68634;BME280;55625;47.072;22.192;2022-08-14T03:09:22;99060.41;;;19.48;69.79
68634;BME280;55625;47.072;22.192;2022-08-14T03:11:48;99063.81;;;19.46;69.64
68634;BME280;55625;47.072;22.192;2022-08-14T03:14:14;99068.25;;;19.47;69.78
68634;BME280;55625;47.072;22.192;2022-08-14T03:16:40;99065.38;;;19.47;69.84
68634;BME280;55625;47.072;22.192;2022-08-14T03:19:07;99074.00;;;19.47;70.45
68634;BME280;55625;47.072;22.192;2022-08-14T03:21:35;99064.84;;;19.49;70.14
68634;BME280;55625;47.072;22.192;2022-08-14T03:24:03;99073.72;;;19.51;71.00
68634;BME280;55625;47.072;22.192;2022-08-14T03:26:35;99064.84;;;19.49;70.93
68634;BME280;55625;47.072;22.192;2022-08-14T03:29:03;99058.06;;;19.46;70.95
68634;BME280;55625;47.072;22.192;2022-08-14T03:31:29;99066.94;;;19.48;71.18
68634;BME280;55625;47.072;22.192;2022-08-14T03:33:56;99075.59;;;19.48;71.13
68634;BME280;55625;47.072;22.192;2022-08-14T03:36:22;99074.81;;;19.48;71.16
68634;BME280;55625;47.072;22.192;2022-08-14T03:38:50;99074.56;;;19.46;71.30
68634;BME280;55625;47.072;22.192;2022-08-14T03:41:19;99071.13;;;19.47;71.64
68634;BME280;55625;47.072;22.192;2022-08-14T03:43:49;99073.50;;;19.43;71.76
68634;BME280;55625;47.072;22.192;2022-08-14T03:46:17;99068.81;;;19.40;72.23
68634;BME280;55625;47.072;22.192;2022-08-14T03:48:44;99063.06;;;19.40;72.25
68634;BME280;55625;47.072;22.192;2022-08-14T03:51:11;99072.25;;;19.39;72.59
68634;BME280;55625;47.072;22.192;2022-08-14T03:53:43;99068.06;;;19.34;73.01
68634;BME280;55625;47.072;22.192;2022-08-14T03:56:12;99072.81;;;19.32;73.03
68634;BME280;55625;47.072;22.192;2022-08-14T03:58:46;99073.34;;;19.30;73.40
68634;BME280;55625;47.072;22.192;2022-08-14T04:01:19;99074.91;;;19.26;73.48
68634;BME280;55625;47.072;22.192;2022-08-14T04:03:48;99072.56;;;19.24;73.35
68634;BME280;55625;47.072;22.192;2022-08-14T04:06:15;99074.13;;;19.25;73.27
68634;BME280;55625;47.072;22.192;2022-08-14T04:08:42;99077.53;;;19.29;73.37
68634;BME280;55625;47.072;22.192;2022-08-14T04:11:09;99075.44;;;19.30;73.24
68634;BME280;55625;47.072;22.192;2022-08-14T04:13:44;99077.78;;;19.31;73.54
68634;BME280;55625;47.072;22.192;2022-08-14T04:16:21;99078.28;;;19.35;73.42
68634;BME280;55625;47.072;22.192;2022-08-14T04:18:55;99077.50;;;19.35;73.54
68634;BME280;55625;47.072;22.192;2022-08-14T04:21:24;99080.63;;;19.37;73.73
68634;BME280;55625;47.072;22.192;2022-08-14T04:23:54;99081.41;;;19.37;73.61
68634;BME280;55625;47.072;22.192;2022-08-14T04:26:20;99080.06;;;19.44;73.41
68634;BME280;55625;47.072;22.192;2022-08-14T04:28:48;99084.25;;;19.43;73.31
68634;BME280;55625;47.072;22.192;2022-08-14T04:31:18;99085.03;;;19.43;73.28
68634;BME280;55625;47.072;22.192;2022-08-14T04:33:45;99088.66;;;19.49;73.20
68634;BME280;55625;47.072;22.192;2022-08-14T04:36:11;99085.25;;;19.57;73.00
68634;BME280;55625;47.072;22.192;2022-08-14T04:38:37;99080.50;;;19.59;72.84
68634;BME280;55625;47.072;22.192;2022-08-14T04:41:21;99089.41;;;19.67;72.55
68634;BME280;55625;47.072;22.192;2022-08-14T04:44:06;99092.22;;;19.72;72.42
68634;BME280;55625;47.072;22.192;2022-08-14T04:46:34;99095.59;;;19.76;72.17
68634;BME280;55625;47.072;22.192;2022-08-14T04:49:01;99084.28;;;19.84;71.88
68634;BME280;55625;47.072;22.192;2022-08-14T04:51:27;99089.22;;;19.95;71.65
68634;BME280;55625;47.072;22.192;2022-08-14T04:53:54;99082.09;;;20.01;71.49
68634;BME280;55625;47.072;22.192;2022-08-14T04:56:25;99093.81;;;20.09;70.29
68634;BME280;55625;47.072;22.192;2022-08-14T04:58:57;99086.69;;;20.15;70.28
68634;BME280;55625;47.072;22.192;2022-08-14T05:01:25;99090.03;;;20.25;69.29
68634;BME280;55625;47.072;22.192;2022-08-14T05:03:51;99093.13;;;20.33;68.58
68634;BME280;55625;47.072;22.192;2022-08-14T05:06:18;99092.28;;;20.38;68.45
68634;BME280;55625;47.072;22.192;2022-08-14T05:08:44;99088.34;;;20.41;67.56
68634;BME280;55625;47.072;22.192;2022-08-14T05:11:10;99091.97;;;20.47;67.26
68634;BME280;55625;47.072;22.192;2022-08-14T05:13:37;99088.28;;;20.52;67.83
68634;BME280;55625;47.072;22.192;2022-08-14T05:16:04;99092.34;;;20.62;67.07
68634;BME280;55625;47.072;22.192;2022-08-14T05:18:34;99091.53;;;20.67;66.49
68634;BME280;55625;47.072;22.192;2022-08-14T05:21:04;99091.69;;;20.75;65.63
68634;BME280;55625;47.072;22.192;2022-08-14T05:23:35;99099.78;;;20.82;64.77
68634;BME280;55625;47.072;22.192;2022-08-14T05:26:02;99093.09;;;20.93;64.69
68634;BME280;55625;47.072;22.192;2022-08-14T05:28:34;99094.06;;;21.01;64.34
68634;BME280;55625;47.072;22.192;2022-08-14T05:31:04;99091.63;;;21.05;64.72
68634;BME280;55625;47.072;22.192;2022-08-14T05:33:35;99092.31;;;21.17;64.46
68634;BME280;55625;47.072;22.192;2022-08-14T05:36:06;99082.56;;;21.44;63.83
68634;BME280;55625;47.072;22.192;2022-08-14T05:38:38;99092.69;;;21.69;62.94
68634;BME280;55625;47.072;22.192;2022-08-14T05:41:08;99085.81;;;21.91;63.13
68634;BME280;55625;47.072;22.192;2022-08-14T05:43:34;99085.00;;;22.28;61.84
68634;BME280;55625;47.072;22.192;2022-08-14T05:46:01;99081.22;;;22.66;61.09
68634;BME280;55625;47.072;22.192;2022-08-14T05:48:27;99083.03;;;22.95;59.18
68634;BME280;55625;47.072;22.192;2022-08-14T05:50:54;99085.94;;;23.21;59.48
68634;BME280;55625;47.072;22.192;2022-08-14T05:53:26;99083.03;;;23.48;57.62
68634;BME280;55625;47.072;22.192;2022-08-14T05:55:53;99084.16;;;23.71;56.92
68634;BME280;55625;47.072;22.192;2022-08-14T05:58:21;99094.69;;;23.95;54.94
68634;BME280;55625;47.072;22.192;2022-08-14T06:00:48;99094.13;;;23.97;54.71
68634;BME280;55625;47.072;22.192;2022-08-14T06:03:20;99092.56;;;24.16;54.90
68634;BME280;55625;47.072;22.192;2022-08-14T06:05:51;99091.22;;;24.31;53.95
68634;BME280;55625;47.072;22.192;2022-08-14T06:08:24;99098.28;;;24.43;54.30
68634;BME280;55625;47.072;22.192;2022-08-14T06:10:57;99097.34;;;24.48;53.39
68634;BME280;55625;47.072;22.192;2022-08-14T06:13:46;99097.22;;;24.74;53.30
68634;BME280;55625;47.072;22.192;2022-08-14T06:16:15;99097.41;;;24.97;52.30
68634;BME280;55625;47.072;22.192;2022-08-14T06:18:41;99096.41;;;25.16;51.85
68634;BME280;55625;47.072;22.192;2022-08-14T06:21:07;99090.72;;;25.38;51.22
68634;BME280;55625;47.072;22.192;2022-08-14T06:23:33;99094.84;;;25.43;51.02
68634;BME280;55625;47.072;22.192;2022-08-14T06:25:59;99090.03;;;25.53;50.62
68634;BME280;55625;47.072;22.192;2022-08-14T06:28:26;99091.66;;;25.69;51.23
68634;BME280;55625;47.072;22.192;2022-08-14T06:30:52;99086.34;;;25.89;51.37
68634;BME280;55625;47.072;22.192;2022-08-14T06:33:19;99078.25;;;26.03;50.43
68634;BME280;55625;47.072;22.192;2022-08-14T06:35:46;99076.72;;;26.09;49.82
68634;BME280;55625;47.072;22.192;2022-08-14T06:38:18;99076.16;;;26.26;50.11
68634;BME280;55625;47.072;22.192;2022-08-14T06:40:45;99075.81;;;26.45;48.91
68634;BME280;55625;47.072;22.192;2022-08-14T06:43:13;99068.63;;;26.61;48.88
68634;BME280;55625;47.072;22.192;2022-08-14T06:45:43;99068.66;;;26.76;48.85
68634;BME280;55625;47.072;22.192;2022-08-14T06:48:17;99067.84;;;26.91;49.05
68634;BME280;55625;47.072;22.192;2022-08-14T06:50:44;99062.84;;;26.99;48.31
68634;BME280;55625;47.072;22.192;2022-08-14T06:53:11;99058.94;;;26.97;49.30
68634;BME280;55625;47.072;22.192;2022-08-14T06:55:40;99063.97;;;27.19;48.23
68634;BME280;55625;47.072;22.192;2022-08-14T06:58:15;99064.69;;;27.42;47.83
68634;BME280;55625;47.072;22.192;2022-08-14T07:00:42;99063.69;;;27.47;47.40
68634;BME280;55625;47.072;22.192;2022-08-14T07:03:29;99058.63;;;27.63;47.78
68634;BME280;55625;47.072;22.192;2022-08-14T07:06:15;99056.41;;;27.79;46.70
68634;BME280;55625;47.072;22.192;2022-08-14T07:08:42;99061.97;;;27.92;46.58
68634;BME280;55625;47.072;22.192;2022-08-14T07:11:10;99054.59;;;27.91;46.04
68634;BME280;55625;47.072;22.192;2022-08-14T07:13:36;99058.78;;;28.05;45.67
68634;BME280;55625;47.072;22.192;2022-08-14T07:16:03;99055.97;;;27.90;45.31
68634;BME280;55625;47.072;22.192;2022-08-14T07:18:32;99055.16;;;27.97;47.17
68634;BME280;55625;47.072;22.192;2022-08-14T07:21:00;99049.38;;;28.14;46.48
68634;BME280;55625;47.072;22.192;2022-08-14T07:23:27;99046.81;;;28.26;46.27
68634;BME280;55625;47.072;22.192;2022-08-14T07:25:56;99058.09;;;28.55;46.52
68634;BME280;55625;47.072;22.192;2022-08-14T07:28:53;99052.81;;;28.86;45.76
68634;BME280;55625;47.072;22.192;2022-08-14T07:31:18;99059.56;;;29.13;45.06
68634;BME280;55625;47.072;22.192;2022-08-14T07:33:47;99053.00;;;29.22;44.21
68634;BME280;55625;47.072;22.192;2022-08-14T07:36:17;99053.28;;;29.17;44.05
68634;BME280;55625;47.072;22.192;2022-08-14T07:38:43;99058.03;;;28.87;45.17
68634;BME280;55625;47.072;22.192;2022-08-14T07:41:11;99056.00;;;28.97;45.64
68634;BME280;55625;47.072;22.192;2022-08-14T07:43:39;99051.78;;;29.08;45.29
68634;BME280;55625;47.072;22.192;2022-08-14T07:46:06;99046.75;;;29.26;44.45
68634;BME280;55625;47.072;22.192;2022-08-14T07:48:39;99047.78;;;29.55;44.39
68634;BME280;55625;47.072;22.192;2022-08-14T07:51:06;99043.16;;;29.70;42.51
68634;BME280;55625;47.072;22.192;2022-08-14T07:53:32;99038.75;;;29.61;44.61
68634;BME280;55625;47.072;22.192;2022-08-14T07:55:58;99034.09;;;29.75;43.65
68634;BME280;55625;47.072;22.192;2022-08-14T07:58:25;99045.47;;;29.71;43.14
68634;BME280;55625;47.072;22.192;2022-08-14T08:00:55;99036.09;;;29.73;42.78
68634;BME280;55625;47.072;22.192;2022-08-14T08:03:23;99026.72;;;30.01;43.52
68634;BME280;55625;47.072;22.192;2022-08-14T08:05:50;99032.31;;;30.34;42.64
68634;BME280;55625;47.072;22.192;2022-08-14T08:08:16;99036.78;;;30.35;41.92
68634;BME280;55625;47.072;22.192;2022-08-14T08:10:43;99029.91;;;30.49;42.43
68634;BME280;55625;47.072;22.192;2022-08-14T08:13:18;99033.31;;;30.55;40.67
68634;BME280;55625;47.072;22.192;2022-08-14T08:15:56;99034.38;;;30.50;41.43
68634;BME280;55625;47.072;22.192;2022-08-14T08:18:23;99028.50;;;30.50;40.95
68634;BME280;55625;47.072;22.192;2022-08-14T08:20:52;99020.75;;;30.36;40.71
68634;BME280;55625;47.072;22.192;2022-08-14T08:23:21;99022.94;;;30.45;41.79
68634;BME280;55625;47.072;22.192;2022-08-14T08:25:49;99026.13;;;30.66;41.36
68634;BME280;55625;47.072;22.192;2022-08-14T08:28:23;99017.63;;;30.61;41.12
68634;BME280;55625;47.072;22.192;2022-08-14T08:31:00;99019.84;;;30.79;40.57
68634;BME280;55625;47.072;22.192;2022-08-14T08:33:30;99015.56;;;31.00;40.33
68634;BME280;55625;47.072;22.192;2022-08-14T08:36:05;99015.13;;;31.13;39.87
68634;BME280;55625;47.072;22.192;2022-08-14T08:38:32;99017.94;;;31.20;37.88
68634;BME280;55625;47.072;22.192;2022-08-14T08:40:59;99010.50;;;31.10;38.57
68634;BME280;55625;47.072;22.192;2022-08-14T08:43:29;99005.09;;;30.97;38.80
68634;BME280;55625;47.072;22.192;2022-08-14T08:46:11;98997.41;;;31.30;38.29
68634;BME280;55625;47.072;22.192;2022-08-14T08:48:53;98990.00;;;31.58;37.92
68634;BME280;55625;47.072;22.192;2022-08-14T08:51:35;98980.72;;;31.52;36.66
68634;BME280;55625;47.072;22.192;2022-08-14T08:54:12;98984.72;;;31.86;36.63
68634;BME280;55625;47.072;22.192;2022-08-14T08:56:44;98982.91;;;32.21;37.56
68634;BME280;55625;47.072;22.192;2022-08-14T08:59:29;98983.31;;;32.37;33.94
68634;BME280;55625;47.072;22.192;2022-08-14T09:01:57;98979.09;;;32.50;33.66
68634;BME280;55625;47.072;22.192;2022-08-14T09:04:28;98980.78;;;32.53;33.39
68634;BME280;55625;47.072;22.192;2022-08-14T09:06:56;98966.31;;;32.66;33.06
68634;BME280;55625;47.072;22.192;2022-08-14T09:09:28;98969.31;;;32.57;32.96
68634;BME280;55625;47.072;22.192;2022-08-14T09:11:57;98966.16;;;32.64;32.33
68634;BME280;55625;47.072;22.192;2022-08-14T09:14:29;98975.22;;;32.78;33.29
68634;BME280;55625;47.072;22.192;2022-08-14T09:16:58;98978.00;;;33.07;33.88
68634;BME280;55625;47.072;22.192;2022-08-14T09:19:26;98978.75;;;33.08;31.61
68634;BME280;55625;47.072;22.192;2022-08-14T09:21:52;98974.28;;;33.07;30.84
68634;BME280;55625;47.072;22.192;2022-08-14T09:24:19;98968.69;;;33.11;29.36
68634;BME280;55625;47.072;22.192;2022-08-14T09:26:45;98962.78;;;33.11;28.97
68634;BME280;55625;47.072;22.192;2022-08-14T09:29:11;98956.81;;;32.78;30.32
68634;BME280;55625;47.072;22.192;2022-08-14T09:31:46;98956.66;;;32.76;31.04
68634;BME280;55625;47.072;22.192;2022-08-14T09:43:32;98943.00;;;33.77;30.32
68634;BME280;55625;47.072;22.192;2022-08-14T09:46:06;98951.69;;;33.75;29.23
68634;BME280;55625;47.072;22.192;2022-08-14T09:48:32;98944.16;;;33.18;30.33
68634;BME280;55625;47.072;22.192;2022-08-14T09:50:59;98942.59;;;32.74;31.39
68634;BME280;55625;47.072;22.192;2022-08-14T09:53:44;98943.47;;;32.86;29.72
68634;BME280;55625;47.072;22.192;2022-08-14T09:56:13;98939.63;;;32.84;30.40
68634;BME280;55625;47.072;22.192;2022-08-14T09:58:40;98938.25;;;32.75;30.84
68634;BME280;55625;47.072;22.192;2022-08-14T10:01:18;98933.34;;;32.68;30.55
68634;BME280;55625;47.072;22.192;2022-08-14T10:03:54;98917.66;;;32.75;31.27
68634;BME280;55625;47.072;22.192;2022-08-14T10:06:23;98921.66;;;32.58;30.33
68634;BME280;55625;47.072;22.192;2022-08-14T10:09:03;98912.09;;;32.58;30.98
68634;BME280;55625;47.072;22.192;2022-08-14T10:11:36;98914.63;;;32.94;30.19
68634;BME280;55625;47.072;22.192;2022-08-14T10:14:24;98918.34;;;33.28;30.23
68634;BME280;55625;47.072;22.192;2022-08-14T10:16:56;98911.44;;;33.56;29.52
68634;BME280;55625;47.072;22.192;2022-08-14T10:19:25;98904.19;;;33.69;28.84
68634;BME280;55625;47.072;22.192;2022-08-14T10:22:08;98903.13;;;33.64;28.71
68634;BME280;55625;47.072;22.192;2022-08-14T10:24:43;98896.72;;;33.56;29.86
68634;BME280;55625;47.072;22.192;2022-08-14T10:27:22;98901.81;;;33.89;29.31
68634;BME280;55625;47.072;22.192;2022-08-14T10:29:55;98895.31;;;34.02;27.77
68634;BME280;55625;47.072;22.192;2022-08-14T10:32:22;98893.72;;;33.78;28.35
68634;BME280;55625;47.072;22.192;2022-08-14T10:34:49;98892.13;;;33.53;27.77
68634;BME280;55625;47.072;22.192;2022-08-14T10:37:17;98903.66;;;33.28;28.56
68634;BME280;55625;47.072;22.192;2022-08-14T10:39:56;98891.06;;;33.37;28.49
68634;BME280;55625;47.072;22.192;2022-08-14T10:42:22;98887.78;;;33.54;28.26
68634;BME280;55625;47.072;22.192;2022-08-14T10:44:58;98884.19;;;33.56;28.08
68634;BME280;55625;47.072;22.192;2022-08-14T10:47:34;98881.75;;;33.19;28.59
68634;BME280;55625;47.072;22.192;2022-08-14T10:50:02;98880.41;;;33.32;29.22
68634;BME280;55625;47.072;22.192;2022-08-14T10:52:30;98884.06;;;33.54;29.00
68634;BME280;55625;47.072;22.192;2022-08-14T10:55:14;98881.00;;;33.19;28.21
68634;BME280;55625;47.072;22.192;2022-08-14T10:57:53;98875.75;;;33.17;29.23
68634;BME280;55625;47.072;22.192;2022-08-14T11:00:22;98869.25;;;33.30;29.36
68634;BME280;55625;47.072;22.192;2022-08-14T11:03:09;98870.31;;;33.35;28.73
68634;BME280;55625;47.072;22.192;2022-08-14T11:05:41;98870.88;;;33.55;28.85
68634;BME280;55625;47.072;22.192;2022-08-14T11:08:10;98872.31;;;33.65;28.63
68634;BME280;55625;47.072;22.192;2022-08-14T11:10:47;98863.22;;;33.61;28.91
68634;BME280;55625;47.072;22.192;2022-08-14T11:13:19;98864.34;;;33.56;27.95
68634;BME280;55625;47.072;22.192;2022-08-14T11:15:48;98856.78;;;33.42;27.90
68634;BME280;55625;47.072;22.192;2022-08-14T11:18:16;98864.38;;;33.23;29.00
68634;BME280;55625;47.072;22.192;2022-08-14T11:20:50;98864.06;;;33.08;28.42
68634;BME280;55625;47.072;22.192;2022-08-14T11:23:35;98859.94;;;33.01;29.47
68634;BME280;55625;47.072;22.192;2022-08-14T11:26:03;98862.47;;;32.95;28.76
68634;BME280;55625;47.072;22.192;2022-08-14T11:28:38;98867.44;;;32.92;29.23
68634;BME280;55625;47.072;22.192;2022-08-14T11:31:09;98869.22;;;32.86;29.42
68634;BME280;55625;47.072;22.192;2022-08-14T11:33:37;98876.53;;;32.96;29.70
68634;BME280;55625;47.072;22.192;2022-08-14T11:36:09;98868.00;;;33.00;28.69
68634;BME280;55625;47.072;22.192;2022-08-14T11:38:45;98866.84;;;33.06;28.97
68634;BME280;55625;47.072;22.192;2022-08-14T11:41:13;98862.06;;;33.22;29.19
68634;BME280;55625;47.072;22.192;2022-08-14T11:43:49;98859.13;;;33.22;29.08
68634;BME280;55625;47.072;22.192;2022-08-14T11:46:16;98850.91;;;33.09;27.52
68634;BME280;55625;47.072;22.192;2022-08-14T11:48:52;98860.41;;;33.19;28.92
68634;BME280;55625;47.072;22.192;2022-08-14T11:51:22;98851.19;;;33.13;29.62
68634;BME280;55625;47.072;22.192;2022-08-14T11:54:09;98841.97;;;33.18;29.22
68634;BME280;55625;47.072;22.192;2022-08-14T11:56:39;98861.75;;;33.06;28.97
68634;BME280;55625;47.072;22.192;2022-08-14T11:59:15;98843.56;;;32.98;29.02
68634;BME280;55625;47.072;22.192;2022-08-14T12:01:43;98849.53;;;32.67;29.62
68634;BME280;55625;47.072;22.192;2022-08-14T12:04:18;98841.50;;;32.46;29.30
68634;BME280;55625;47.072;22.192;2022-08-14T12:06:50;98840.66;;;32.34;29.75
68634;BME280;55625;47.072;22.192;2022-08-14T12:09:33;98839.66;;;32.62;29.14
68634;BME280;55625;47.072;22.192;2022-08-14T12:12:23;98834.84;;;32.88;27.84
68634;BME280;55625;47.072;22.192;2022-08-14T12:14:58;98833.13;;;33.07;26.84
68634;BME280;55625;47.072;22.192;2022-08-14T12:17:46;98834.47;;;33.27;27.82
68634;BME280;55625;47.072;22.192;2022-08-14T12:20:17;98831.47;;;33.60;27.07
68634;BME280;55625;47.072;22.192;2022-08-14T12:22:45;98831.63;;;33.74;27.70
68634;BME280;55625;47.072;22.192;2022-08-14T12:25:17;98824.84;;;33.71;27.10
68634;BME280;55625;47.072;22.192;2022-08-14T12:27:50;98812.69;;;33.77;27.22
68634;BME280;55625;47.072;22.192;2022-08-14T12:30:43;98823.06;;;33.89;26.56
68634;BME280;55625;47.072;22.192;2022-08-14T12:33:22;98826.13;;;33.68;26.47
68634;BME280;55625;47.072;22.192;2022-08-14T12:35:55;98825.34;;;33.56;26.49
68634;BME280;55625;47.072;22.192;2022-08-14T12:38:38;98816.25;;;33.40;26.91
68634;BME280;55625;47.072;22.192;2022-08-14T12:41:15;98818.19;;;33.82;26.13
68634;BME280;55625;47.072;22.192;2022-08-14T12:43:54;98817.28;;;33.80;25.68
68634;BME280;55625;47.072;22.192;2022-08-14T12:46:34;98808.34;;;33.78;25.74
68634;BME280;55625;47.072;22.192;2022-08-14T12:49:21;98816.16;;;33.85;26.50
68634;BME280;55625;47.072;22.192;2022-08-14T12:52:00;98814.09;;;33.76;26.21
68634;BME280;55625;47.072;22.192;2022-08-14T12:54:27;98807.72;;;33.91;25.97
68634;BME280;55625;47.072;22.192;2022-08-14T12:57:10;98810.00;;;33.81;25.48
68634;BME280;55625;47.072;22.192;2022-08-14T12:59:37;98812.81;;;33.79;26.38
68634;BME280;55625;47.072;22.192;2022-08-14T13:02:04;98798.25;;;34.04;25.09
68634;BME280;55625;47.072;22.192;2022-08-14T13:04:29;98806.44;;;34.06;25.45
68634;BME280;55625;47.072;22.192;2022-08-14T13:07:02;98800.66;;;33.96;25.46
68634;BME280;55625;47.072;22.192;2022-08-14T13:09:34;98790.81;;;33.91;27.02
68634;BME280;55625;47.072;22.192;2022-08-14T13:12:03;98797.22;;;33.88;26.14
68634;BME280;55625;47.072;22.192;2022-08-14T13:14:30;98788.38;;;33.88;26.57
68634;BME280;55625;47.072;22.192;2022-08-14T13:16:59;98782.75;;;33.69;26.34